sensor_id;sensor_type;location;lat;lon;timestamp;P1;durP1;ratioP1;P2;durP2;ratioP2
27375;SDS011;14844;51.302;6.354;2022-11-18T00:02:12;14.27;;;6.13;;
27375;SDS011;14844;51.302;6.354;2022-11-18T00:04:38;15.43;;;6.22;;
27375;SDS011;14844;51.302;6.354;2022-11-18T00:07:04;20.48;;;6.50;;
27375;SDS011;14844;51.302;6.354;2022-11-18T00:09:29;15.93;;;6.38;;
27375;SDS011;14844;51.302;6.354;2022-11-18T00:11:55;19.88;;;6.18;;
27375;SDS011;14844;51.302;6.354;2022-11-18T00:14:39;12.90;;;5.30;;
27375;SDS011;14844;51.302;6.354;2022-11-18T00:17:05;13.77;;;5.63;;
27375;SDS011;14844;51.302;6.354;2022-11-18T00:19:35;19.20;;;5.32;;
27375;SDS011;14844;51.302;6.354;2022-11-18T00:22:02;12.32;;;5.00;;
27375;SDS011;14844;51.302;6.354;2022-11-18T00:24:29;17.42;;;5.28;;
27375;SDS011;14844;51.302;6.354;2022-11-18T00:26:55;14.70;;;5.35;;
27375;SDS011;14844;51.302;6.354;2022-11-18T00:29:21;14.57;;;5.30;;
27375;SDS011;14844;51.302;6.354;2022-11-18T00:31:48;13.23;;;5.30;;
27375;SDS011;14844;51.302;6.354;2022-11-18T00:34:14;13.70;;;4.68;;
27375;SDS011;14844;51.302;6.354;2022-11-18T00:36:41;9.88;;;4.25;;
27375;SDS011;14844;51.302;6.354;2022-11-18T00:39:12;17.50;;;5.32;;
27375;SDS011;14844;51.302;6.354;2022-11-18T00:41:39;16.75;;;5.22;;
27375;SDS011;14844;51.302;6.354;2022-11-18T00:44:23;12.95;;;4.80;;
27375;SDS011;14844;51.302;6.354;2022-11-18T00:46:49;13.35;;;4.72;;
27375;SDS011;14844;51.302;6.354;2022-11-18T00:49:15;16.08;;;5.22;;
27375;SDS011;14844;51.302;6.354;2022-11-18T00:51:40;15.45;;;5.35;;
27375;SDS011;14844;51.302;6.354;2022-11-18T00:54:06;13.48;;;5.13;;
27375;SDS011;14844;51.302;6.354;2022-11-18T00:56:31;13.48;;;4.55;;
27375;SDS011;14844;51.302;6.354;2022-11-18T00:58:57;12.02;;;4.63;;
27375;SDS011;14844;51.302;6.354;2022-11-18T01:01:22;14.02;;;4.38;;
27375;SDS011;14844;51.302;6.354;2022-11-18T01:03:48;10.65;;;3.78;;
27375;SDS011;14844;51.302;6.354;2022-11-18T01:06:14;11.60;;;4.22;;
27375;SDS011;14844;51.302;6.354;2022-11-18T01:08:40;11.38;;;4.15;;
27375;SDS011;14844;51.302;6.354;2022-11-18T01:11:05;11.13;;;4.65;;
27375;SDS011;14844;51.302;6.354;2022-11-18T01:13:50;13.80;;;4.53;;
27375;SDS011;14844;51.302;6.354;2022-11-18T01:16:17;13.10;;;4.50;;
27375;SDS011;14844;51.302;6.354;2022-11-18T01:18:44;13.50;;;4.75;;
27375;SDS011;14844;51.302;6.354;2022-11-18T01:21:09;13.52;;;4.45;;
27375;SDS011;14844;51.302;6.354;2022-11-18T01:23:35;9.05;;;3.72;;
27375;SDS011;14844;51.302;6.354;2022-11-18T01:26:03;12.93;;;4.65;;
27375;SDS011;14844;51.302;6.354;2022-11-18T01:28:30;14.55;;;4.25;;
27375;SDS011;14844;51.302;6.354;2022-11-18T01:31:02;11.52;;;4.22;;
27375;SDS011;14844;51.302;6.354;2022-11-18T01:33:32;13.80;;;4.13;;
27375;SDS011;14844;51.302;6.354;2022-11-18T01:35:57;12.90;;;3.97;;
27375;SDS011;14844;51.302;6.354;2022-11-18T01:38:23;14.82;;;4.38;;
27375;SDS011;14844;51.302;6.354;2022-11-18T01:40:49;10.20;;;3.90;;
27375;SDS011;14844;51.302;6.354;2022-11-18T01:43:16;11.88;;;3.88;;
27375;SDS011;14844;51.302;6.354;2022-11-18T01:45:44;11.55;;;4.45;;
27375;SDS011;14844;51.302;6.354;2022-11-18T01:48:22;15.15;;;4.10;;
27375;SDS011;14844;51.302;6.354;2022-11-18T01:50:57;10.95;;;4.00;;
27375;SDS011;14844;51.302;6.354;2022-11-18T01:53:29;12.88;;;3.90;;
27375;SDS011;14844;51.302;6.354;2022-11-18T01:55:58;13.35;;;3.85;;
27375;SDS011;14844;51.302;6.354;2022-11-18T01:58:35;16.88;;;4.30;;
27375;SDS011;14844;51.302;6.354;2022-11-18T02:01:03;11.93;;;3.83;;
27375;SDS011;14844;51.302;6.354;2022-11-18T02:03:31;8.07;;;3.33;;
27375;SDS011;14844;51.302;6.354;2022-11-18T02:05:57;19.00;;;3.75;;
27375;SDS011;14844;51.302;6.354;2022-11-18T02:08:24;16.63;;;4.25;;
27375;SDS011;14844;51.302;6.354;2022-11-18T02:10:50;18.10;;;4.40;;
27375;SDS011;14844;51.302;6.354;2022-11-18T02:13:16;13.27;;;4.05;;
27375;SDS011;14844;51.302;6.354;2022-11-18T02:18:22;14.73;;;4.38;;
27375;SDS011;14844;51.302;6.354;2022-11-18T02:21:04;12.88;;;4.53;;
27375;SDS011;14844;51.302;6.354;2022-11-18T02:30:10;15.05;;;4.68;;
27375;SDS011;14844;51.302;6.354;2022-11-18T02:32:31;14.82;;;4.95;;
27375;SDS011;14844;51.302;6.354;2022-11-18T02:38:15;12.10;;;4.28;;
27375;SDS011;14844;51.302;6.354;2022-11-18T02:41:00;12.15;;;4.32;;
27375;SDS011;14844;51.302;6.354;2022-11-18T02:43:37;12.30;;;4.28;;
27375;SDS011;14844;51.302;6.354;2022-11-18T02:46:10;12.25;;;4.57;;
27375;SDS011;14844;51.302;6.354;2022-11-18T02:51:10;10.57;;;3.72;;
27375;SDS011;14844;51.302;6.354;2022-11-18T02:53:41;16.23;;;4.38;;
27375;SDS011;14844;51.302;6.354;2022-11-18T02:56:09;8.80;;;3.80;;
27375;SDS011;14844;51.302;6.354;2022-11-18T02:58:36;16.42;;;4.20;;
27375;SDS011;14844;51.302;6.354;2022-11-18T03:01:02;11.60;;;3.95;;
27375;SDS011;14844;51.302;6.354;2022-11-18T03:03:32;12.98;;;4.70;;
27375;SDS011;14844;51.302;6.354;2022-11-18T03:09:07;14.57;;;3.97;;
27375;SDS011;14844;51.302;6.354;2022-11-18T03:11:36;10.27;;;4.00;;
27375;SDS011;14844;51.302;6.354;2022-11-18T03:19:51;12.57;;;4.03;;
27375;SDS011;14844;51.302;6.354;2022-11-18T03:22:32;15.13;;;3.53;;
27375;SDS011;14844;51.302;6.354;2022-11-18T03:30:11;13.05;;;3.10;;
27375;SDS011;14844;51.302;6.354;2022-11-18T03:32:41;9.45;;;3.00;;
27375;SDS011;14844;51.302;6.354;2022-11-18T03:35:23;9.45;;;2.63;;
27375;SDS011;14844;51.302;6.354;2022-11-18T03:37:53;15.07;;;2.83;;
27375;SDS011;14844;51.302;6.354;2022-11-18T03:40:24;12.13;;;2.90;;
27375;SDS011;14844;51.302;6.354;2022-11-18T03:42:55;9.95;;;2.83;;
27375;SDS011;14844;51.302;6.354;2022-11-18T03:48:18;12.75;;;3.25;;
27375;SDS011;14844;51.302;6.354;2022-11-18T03:50:53;9.63;;;2.25;;
27375;SDS011;14844;51.302;6.354;2022-11-18T03:53:30;12.50;;;2.45;;
27375;SDS011;14844;51.302;6.354;2022-11-18T03:56:01;11.63;;;2.40;;
27375;SDS011;14844;51.302;6.354;2022-11-18T03:58:48;11.63;;;2.60;;
27375;SDS011;14844;51.302;6.354;2022-11-18T04:01:22;11.65;;;2.88;;
27375;SDS011;14844;51.302;6.354;2022-11-18T04:03:57;15.48;;;2.55;;
27375;SDS011;14844;51.302;6.354;2022-11-18T04:09:02;6.55;;;2.33;;
27375;SDS011;14844;51.302;6.354;2022-11-18T04:11:35;8.63;;;1.90;;
27375;SDS011;14844;51.302;6.354;2022-11-18T04:14:27;12.13;;;2.80;;
27375;SDS011;14844;51.302;6.354;2022-11-18T04:16:54;9.68;;;2.50;;
27375;SDS011;14844;51.302;6.354;2022-11-18T04:19:20;9.52;;;2.42;;
27375;SDS011;14844;51.302;6.354;2022-11-18T04:21:46;13.70;;;2.72;;
27375;SDS011;14844;51.302;6.354;2022-11-18T04:24:13;8.25;;;1.90;;
27375;SDS011;14844;51.302;6.354;2022-11-18T04:26:38;11.57;;;2.05;;
27375;SDS011;14844;51.302;6.354;2022-11-18T04:29:04;10.60;;;2.30;;
27375;SDS011;14844;51.302;6.354;2022-11-18T04:31:32;12.95;;;2.53;;
27375;SDS011;14844;51.302;6.354;2022-11-18T04:33:57;13.00;;;2.17;;
27375;SDS011;14844;51.302;6.354;2022-11-18T04:36:23;9.70;;;2.28;;
27375;SDS011;14844;51.302;6.354;2022-11-18T04:38:50;7.07;;;2.00;;
27375;SDS011;14844;51.302;6.354;2022-11-18T04:41:16;11.98;;;2.30;;
27375;SDS011;14844;51.302;6.354;2022-11-18T04:43:41;14.00;;;2.45;;
27375;SDS011;14844;51.302;6.354;2022-11-18T04:46:07;8.38;;;2.25;;
27375;SDS011;14844;51.302;6.354;2022-11-18T04:48:35;11.05;;;2.20;;
27375;SDS011;14844;51.302;6.354;2022-11-18T04:51:04;8.40;;;2.28;;
27375;SDS011;14844;51.302;6.354;2022-11-18T04:53:30;7.35;;;1.85;;
27375;SDS011;14844;51.302;6.354;2022-11-18T04:55:56;13.55;;;2.55;;
27375;SDS011;14844;51.302;6.354;2022-11-18T04:58:31;12.57;;;2.40;;
27375;SDS011;14844;51.302;6.354;2022-11-18T05:00:59;8.20;;;2.40;;
27375;SDS011;14844;51.302;6.354;2022-11-18T05:03:25;7.85;;;2.03;;
27375;SDS011;14844;51.302;6.354;2022-11-18T05:05:51;10.88;;;2.38;;
27375;SDS011;14844;51.302;6.354;2022-11-18T05:08:16;13.05;;;2.58;;
27375;SDS011;14844;51.302;6.354;2022-11-18T05:10:42;11.18;;;2.35;;
27375;SDS011;14844;51.302;6.354;2022-11-18T05:13:07;10.10;;;2.35;;
27375;SDS011;14844;51.302;6.354;2022-11-18T05:15:33;11.55;;;2.58;;
27375;SDS011;14844;51.302;6.354;2022-11-18T05:17:58;12.18;;;2.50;;
27375;SDS011;14844;51.302;6.354;2022-11-18T05:20:24;14.43;;;2.65;;
27375;SDS011;14844;51.302;6.354;2022-11-18T05:23:10;7.18;;;1.90;;
27375;SDS011;14844;51.302;6.354;2022-11-18T05:25:36;8.38;;;2.13;;
27375;SDS011;14844;51.302;6.354;2022-11-18T05:28:01;10.70;;;2.40;;
27375;SDS011;14844;51.302;6.354;2022-11-18T05:30:27;10.15;;;2.28;;
27375;SDS011;14844;51.302;6.354;2022-11-18T05:32:53;11.25;;;2.33;;
27375;SDS011;14844;51.302;6.354;2022-11-18T05:35:18;7.95;;;2.38;;
27375;SDS011;14844;51.302;6.354;2022-11-18T05:37:50;9.15;;;2.65;;
27375;SDS011;14844;51.302;6.354;2022-11-18T05:40:16;13.68;;;3.47;;
27375;SDS011;14844;51.302;6.354;2022-11-18T05:42:47;11.63;;;2.70;;
27375;SDS011;14844;51.302;6.354;2022-11-18T05:45:32;10.95;;;2.67;;
27375;SDS011;14844;51.302;6.354;2022-11-18T05:48:04;10.15;;;2.47;;
27375;SDS011;14844;51.302;6.354;2022-11-18T05:50:37;7.32;;;2.42;;
27375;SDS011;14844;51.302;6.354;2022-11-18T05:53:03;9.27;;;2.40;;
27375;SDS011;14844;51.302;6.354;2022-11-18T05:55:42;11.65;;;2.90;;
27375;SDS011;14844;51.302;6.354;2022-11-18T05:58:24;6.47;;;2.38;;
27375;SDS011;14844;51.302;6.354;2022-11-18T06:00:50;9.35;;;2.70;;
27375;SDS011;14844;51.302;6.354;2022-11-18T06:03:26;8.63;;;2.30;;
27375;SDS011;14844;51.302;6.354;2022-11-18T06:05:58;14.27;;;2.75;;
27375;SDS011;14844;51.302;6.354;2022-11-18T06:08:27;8.32;;;2.60;;
27375;SDS011;14844;51.302;6.354;2022-11-18T06:10:57;11.40;;;3.42;;
27375;SDS011;14844;51.302;6.354;2022-11-18T06:13:27;9.27;;;3.05;;
27375;SDS011;14844;51.302;6.354;2022-11-18T06:15:57;16.60;;;4.50;;
27375;SDS011;14844;51.302;6.354;2022-11-18T06:18:23;12.82;;;3.28;;
27375;SDS011;14844;51.302;6.354;2022-11-18T06:20:53;9.65;;;2.67;;
27375;SDS011;14844;51.302;6.354;2022-11-18T06:23:28;11.45;;;2.65;;
27375;SDS011;14844;51.302;6.354;2022-11-18T06:25:58;12.60;;;3.15;;
27375;SDS011;14844;51.302;6.354;2022-11-18T06:28:26;12.32;;;2.92;;
27375;SDS011;14844;51.302;6.354;2022-11-18T06:30:53;11.52;;;2.80;;
27375;SDS011;14844;51.302;6.354;2022-11-18T06:33:20;10.63;;;2.83;;
27375;SDS011;14844;51.302;6.354;2022-11-18T06:35:48;9.40;;;2.67;;
27375;SDS011;14844;51.302;6.354;2022-11-18T06:38:16;15.07;;;3.70;;
27375;SDS011;14844;51.302;6.354;2022-11-18T06:40:42;9.20;;;2.70;;
27375;SDS011;14844;51.302;6.354;2022-11-18T06:43:33;12.32;;;2.88;;
27375;SDS011;14844;51.302;6.354;2022-11-18T06:46:16;11.50;;;2.83;;
27375;SDS011;14844;51.302;6.354;2022-11-18T06:49:05;8.60;;;3.03;;
27375;SDS011;14844;51.302;6.354;2022-11-18T06:51:32;14.18;;;3.53;;
27375;SDS011;14844;51.302;6.354;2022-11-18T06:53:57;11.93;;;3.30;;
27375;SDS011;14844;51.302;6.354;2022-11-18T06:56:23;10.45;;;3.22;;
27375;SDS011;14844;51.302;6.354;2022-11-18T06:58:53;8.63;;;3.05;;
27375;SDS011;14844;51.302;6.354;2022-11-18T07:01:24;10.53;;;3.37;;
27375;SDS011;14844;51.302;6.354;2022-11-18T07:03:52;13.80;;;3.60;;
27375;SDS011;14844;51.302;6.354;2022-11-18T07:06:22;10.35;;;3.17;;
27375;SDS011;14844;51.302;6.354;2022-11-18T07:08:51;11.68;;;3.50;;
27375;SDS011;14844;51.302;6.354;2022-11-18T07:11:21;11.52;;;3.85;;
27375;SDS011;14844;51.302;6.354;2022-11-18T07:13:55;8.30;;;3.25;;
27375;SDS011;14844;51.302;6.354;2022-11-18T07:16:25;12.98;;;3.38;;
27375;SDS011;14844;51.302;6.354;2022-11-18T07:18:54;12.30;;;3.65;;
27375;SDS011;14844;51.302;6.354;2022-11-18T07:21:25;9.57;;;3.25;;
27375;SDS011;14844;51.302;6.354;2022-11-18T07:23:54;10.07;;;3.60;;
27375;SDS011;14844;51.302;6.354;2022-11-18T07:26:21;15.52;;;3.65;;
27375;SDS011;14844;51.302;6.354;2022-11-18T07:28:47;14.63;;;3.80;;
27375;SDS011;14844;51.302;6.354;2022-11-18T07:31:14;12.43;;;3.72;;
27375;SDS011;14844;51.302;6.354;2022-11-18T07:33:43;15.55;;;4.13;;
27375;SDS011;14844;51.302;6.354;2022-11-18T07:36:19;12.90;;;3.85;;
27375;SDS011;14844;51.302;6.354;2022-11-18T07:38:47;8.25;;;3.58;;
27375;SDS011;14844;51.302;6.354;2022-11-18T07:41:20;11.55;;;4.13;;
27375;SDS011;14844;51.302;6.354;2022-11-18T07:43:49;9.90;;;4.25;;
27375;SDS011;14844;51.302;6.354;2022-11-18T07:46:25;13.45;;;4.10;;
27375;SDS011;14844;51.302;6.354;2022-11-18T07:48:52;14.75;;;4.55;;
27375;SDS011;14844;51.302;6.354;2022-11-18T07:51:20;8.77;;;4.13;;
27375;SDS011;14844;51.302;6.354;2022-11-18T07:53:47;10.25;;;4.00;;
27375;SDS011;14844;51.302;6.354;2022-11-18T07:56:13;14.80;;;4.60;;
27375;SDS011;14844;51.302;6.354;2022-11-18T07:58:40;11.32;;;4.60;;
27375;SDS011;14844;51.302;6.354;2022-11-18T08:01:07;10.90;;;3.72;;
27375;SDS011;14844;51.302;6.354;2022-11-18T08:03:37;16.15;;;4.18;;
27375;SDS011;14844;51.302;6.354;2022-11-18T08:06:15;11.20;;;3.43;;
27375;SDS011;14844;51.302;6.354;2022-11-18T08:08:51;12.77;;;4.25;;
27375;SDS011;14844;51.302;6.354;2022-11-18T08:11:19;11.52;;;4.65;;
27375;SDS011;14844;51.302;6.354;2022-11-18T08:13:45;18.40;;;4.45;;
27375;SDS011;14844;51.302;6.354;2022-11-18T08:16:12;14.25;;;4.25;;
27375;SDS011;14844;51.302;6.354;2022-11-18T08:18:42;14.73;;;4.28;;
27375;SDS011;14844;51.302;6.354;2022-11-18T08:21:08;16.58;;;4.47;;
27375;SDS011;14844;51.302;6.354;2022-11-18T08:23:34;14.05;;;4.72;;
27375;SDS011;14844;51.302;6.354;2022-11-18T08:26:01;11.65;;;3.83;;
27375;SDS011;14844;51.302;6.354;2022-11-18T08:28:33;10.68;;;3.80;;
27375;SDS011;14844;51.302;6.354;2022-11-18T08:30:59;14.50;;;3.90;;
27375;SDS011;14844;51.302;6.354;2022-11-18T08:33:32;14.32;;;4.80;;
27375;SDS011;14844;51.302;6.354;2022-11-18T08:36:03;14.90;;;4.10;;
27375;SDS011;14844;51.302;6.354;2022-11-18T08:38:31;11.23;;;3.70;;
27375;SDS011;14844;51.302;6.354;2022-11-18T08:40:56;17.73;;;4.70;;
27375;SDS011;14844;51.302;6.354;2022-11-18T08:43:22;14.75;;;4.30;;
27375;SDS011;14844;51.302;6.354;2022-11-18T08:45:48;10.23;;;3.20;;
27375;SDS011;14844;51.302;6.354;2022-11-18T08:48:13;14.30;;;3.90;;
27375;SDS011;14844;51.302;6.354;2022-11-18T08:50:39;10.07;;;3.40;;
27375;SDS011;14844;51.302;6.354;2022-11-18T08:53:05;9.48;;;3.40;;
27375;SDS011;14844;51.302;6.354;2022-11-18T08:55:30;12.50;;;3.25;;
27375;SDS011;14844;51.302;6.354;2022-11-18T08:57:56;8.20;;;3.40;;
27375;SDS011;14844;51.302;6.354;2022-11-18T09:00:22;13.45;;;3.40;;
27375;SDS011;14844;51.302;6.354;2022-11-18T09:02:47;8.30;;;3.17;;
27375;SDS011;14844;51.302;6.354;2022-11-18T09:05:16;13.18;;;3.33;;
27375;SDS011;14844;51.302;6.354;2022-11-18T09:07:44;11.63;;;3.03;;
27375;SDS011;14844;51.302;6.354;2022-11-18T09:10:12;7.40;;;2.83;;
27375;SDS011;14844;51.302;6.354;2022-11-18T09:12:47;12.20;;;3.38;;
27375;SDS011;14844;51.302;6.354;2022-11-18T09:15:13;11.55;;;3.10;;
27375;SDS011;14844;51.302;6.354;2022-11-18T09:17:45;8.90;;;2.90;;
27375;SDS011;14844;51.302;6.354;2022-11-18T09:20:24;10.27;;;2.67;;
27375;SDS011;14844;51.302;6.354;2022-11-18T09:22:52;12.68;;;3.08;;
27375;SDS011;14844;51.302;6.354;2022-11-18T09:25:18;12.85;;;2.97;;
27375;SDS011;14844;51.302;6.354;2022-11-18T09:27:44;7.15;;;2.78;;
27375;SDS011;14844;51.302;6.354;2022-11-18T09:30:10;8.55;;;2.50;;
27375;SDS011;14844;51.302;6.354;2022-11-18T09:32:35;8.93;;;2.70;;
27375;SDS011;14844;51.302;6.354;2022-11-18T09:35:01;11.85;;;2.35;;
27375;SDS011;14844;51.302;6.354;2022-11-18T09:37:27;11.88;;;2.50;;
27375;SDS011;14844;51.302;6.354;2022-11-18T09:39:52;8.27;;;2.45;;
27375;SDS011;14844;51.302;6.354;2022-11-18T09:42:25;12.25;;;2.70;;
27375;SDS011;14844;51.302;6.354;2022-11-18T09:45:20;14.57;;;2.78;;
27375;SDS011;14844;51.302;6.354;2022-11-18T09:47:49;11.82;;;2.72;;
27375;SDS011;14844;51.302;6.354;2022-11-18T09:50:18;8.13;;;2.50;;
27375;SDS011;14844;51.302;6.354;2022-11-18T09:57:44;12.20;;;2.45;;
27375;SDS011;14844;51.302;6.354;2022-11-18T10:00:25;11.60;;;2.53;;
27375;SDS011;14844;51.302;6.354;2022-11-18T10:02:56;10.93;;;2.50;;
27375;SDS011;14844;51.302;6.354;2022-11-18T10:05:49;11.90;;;2.65;;
27375;SDS011;14844;51.302;6.354;2022-11-18T10:08:28;9.40;;;2.47;;
27375;SDS011;14844;51.302;6.354;2022-11-18T10:11:17;8.88;;;2.20;;
27375;SDS011;14844;51.302;6.354;2022-11-18T10:19:32;9.52;;;2.45;;
27375;SDS011;14844;51.302;6.354;2022-11-18T10:25:17;17.27;;;3.85;;
27375;SDS011;14844;51.302;6.354;2022-11-18T10:27:44;12.75;;;3.03;;
27375;SDS011;14844;51.302;6.354;2022-11-18T10:36:17;7.70;;;2.50;;
27375;SDS011;14844;51.302;6.354;2022-11-18T10:39:03;13.57;;;2.85;;
27375;SDS011;14844;51.302;6.354;2022-11-18T10:41:46;13.57;;;2.15;;
27375;SDS011;14844;51.302;6.354;2022-11-18T10:44:28;11.43;;;2.17;;
27375;SDS011;14844;51.302;6.354;2022-11-18T10:47:25;14.98;;;3.00;;
27375;SDS011;14844;51.302;6.354;2022-11-18T10:49:57;11.82;;;2.63;;
27375;SDS011;14844;51.302;6.354;2022-11-18T10:52:24;7.85;;;2.00;;
27375;SDS011;14844;51.302;6.354;2022-11-18T10:55:03;7.95;;;2.05;;
27375;SDS011;14844;51.302;6.354;2022-11-18T10:57:39;9.48;;;2.30;;
27375;SDS011;14844;51.302;6.354;2022-11-18T11:02:58;9.90;;;2.13;;
27375;SDS011;14844;51.302;6.354;2022-11-18T11:05:24;12.80;;;2.47;;
27375;SDS011;14844;51.302;6.354;2022-11-18T11:08:01;13.48;;;2.47;;
27375;SDS011;14844;51.302;6.354;2022-11-18T11:10:28;9.75;;;2.28;;
27375;SDS011;14844;51.302;6.354;2022-11-18T11:18:00;12.57;;;2.33;;
27375;SDS011;14844;51.302;6.354;2022-11-18T11:20:50;8.48;;;2.00;;
27375;SDS011;14844;51.302;6.354;2022-11-18T11:23:16;9.57;;;2.00;;
27375;SDS011;14844;51.302;6.354;2022-11-18T11:25:56;9.75;;;2.00;;
27375;SDS011;14844;51.302;6.354;2022-11-18T11:37:09;10.90;;;1.98;;
27375;SDS011;14844;51.302;6.354;2022-11-18T11:39:33;10.93;;;2.35;;
27375;SDS011;14844;51.302;6.354;2022-11-18T11:48:12;12.68;;;2.38;;
27375;SDS011;14844;51.302;6.354;2022-11-18T11:50:53;12.77;;;2.63;;
27375;SDS011;14844;51.302;6.354;2022-11-18T12:04:49;10.23;;;2.35;;
27375;SDS011;14844;51.302;6.354;2022-11-18T12:07:21;12.77;;;2.85;;
27375;SDS011;14844;51.302;6.354;2022-11-18T12:12:33;6.67;;;1.77;;
27375;SDS011;14844;51.302;6.354;2022-11-18T12:15:15;12.90;;;2.25;;
27375;SDS011;14844;51.302;6.354;2022-11-18T12:18:09;10.52;;;2.72;;
27375;SDS011;14844;51.302;6.354;2022-11-18T12:20:47;12.45;;;2.30;;
27375;SDS011;14844;51.302;6.354;2022-11-18T12:23:15;11.02;;;2.35;;
27375;SDS011;14844;51.302;6.354;2022-11-18T12:25:49;12.95;;;2.95;;
27375;SDS011;14844;51.302;6.354;2022-11-18T12:33:47;9.07;;;1.90;;
27375;SDS011;14844;51.302;6.354;2022-11-18T12:36:27;10.55;;;2.25;;
27375;SDS011;14844;51.302;6.354;2022-11-18T12:38:53;13.35;;;2.28;;
27375;SDS011;14844;51.302;6.354;2022-11-18T12:46:48;8.93;;;2.03;;
27375;SDS011;14844;51.302;6.354;2022-11-18T12:54:53;12.65;;;1.90;;
27375;SDS011;14844;51.302;6.354;2022-11-18T12:57:25;10.02;;;2.30;;
27375;SDS011;14844;51.302;6.354;2022-11-18T12:59:53;11.63;;;1.98;;
27375;SDS011;14844;51.302;6.354;2022-11-18T13:02:37;8.38;;;1.70;;
27375;SDS011;14844;51.302;6.354;2022-11-18T13:05:07;10.43;;;2.35;;
27375;SDS011;14844;51.302;6.354;2022-11-18T13:07:55;8.80;;;2.60;;
27375;SDS011;14844;51.302;6.354;2022-11-18T13:10:49;11.32;;;2.33;;
27375;SDS011;14844;51.302;6.354;2022-11-18T13:13:41;11.68;;;2.45;;
27375;SDS011;14844;51.302;6.354;2022-11-18T13:16:18;14.25;;;2.42;;
27375;SDS011;14844;51.302;6.354;2022-11-18T13:19:06;11.07;;;2.55;;
27375;SDS011;14844;51.302;6.354;2022-11-18T13:21:32;13.10;;;2.45;;
27375;SDS011;14844;51.302;6.354;2022-11-18T13:24:17;13.45;;;2.85;;
27375;SDS011;14844;51.302;6.354;2022-11-18T13:26:45;14.73;;;3.15;;
27375;SDS011;14844;51.302;6.354;2022-11-18T13:34:27;15.98;;;2.85;;
27375;SDS011;14844;51.302;6.354;2022-11-18T13:36:55;11.20;;;2.85;;
27375;SDS011;14844;51.302;6.354;2022-11-18T13:39:24;11.70;;;2.60;;
27375;SDS011;14844;51.302;6.354;2022-11-18T13:42:13;12.30;;;2.20;;
27375;SDS011;14844;51.302;6.354;2022-11-18T13:44:53;14.02;;;2.95;;
27375;SDS011;14844;51.302;6.354;2022-11-18T13:47:20;7.75;;;2.35;;
27375;SDS011;14844;51.302;6.354;2022-11-18T13:49:53;15.43;;;2.75;;
27375;SDS011;14844;51.302;6.354;2022-11-18T13:52:31;13.88;;;2.65;;
27375;SDS011;14844;51.302;6.354;2022-11-18T13:55:20;11.63;;;2.28;;
27375;SDS011;14844;51.302;6.354;2022-11-18T14:00:41;10.77;;;2.58;;
27375;SDS011;14844;51.302;6.354;2022-11-18T14:03:23;9.43;;;2.47;;
27375;SDS011;14844;51.302;6.354;2022-11-18T14:06:03;10.20;;;2.58;;
27375;SDS011;14844;51.302;6.354;2022-11-18T14:08:30;11.95;;;3.13;;
27375;SDS011;14844;51.302;6.354;2022-11-18T14:11:00;11.80;;;2.70;;
27375;SDS011;14844;51.302;6.354;2022-11-18T14:15:58;19.67;;;3.42;;
27375;SDS011;14844;51.302;6.354;2022-11-18T14:18:32;11.18;;;2.78;;
27375;SDS011;14844;51.302;6.354;2022-11-18T14:21:00;15.57;;;2.15;;
27375;SDS011;14844;51.302;6.354;2022-11-18T14:23:40;13.63;;;2.58;;
27375;SDS011;14844;51.302;6.354;2022-11-18T14:26:07;17.25;;;2.90;;
27375;SDS011;14844;51.302;6.354;2022-11-18T14:28:34;12.63;;;2.90;;
27375;SDS011;14844;51.302;6.354;2022-11-18T14:36:50;11.48;;;2.83;;
27375;SDS011;14844;51.302;6.354;2022-11-18T14:39:21;14.13;;;2.85;;
27375;SDS011;14844;51.302;6.354;2022-11-18T14:41:49;8.40;;;2.30;;
27375;SDS011;14844;51.302;6.354;2022-11-18T14:44:15;11.05;;;2.35;;
27375;SDS011;14844;51.302;6.354;2022-11-18T14:46:43;11.90;;;2.95;;
27375;SDS011;14844;51.302;6.354;2022-11-18T14:49:12;10.93;;;2.60;;
27375;SDS011;14844;51.302;6.354;2022-11-18T14:51:43;9.70;;;2.80;;
27375;SDS011;14844;51.302;6.354;2022-11-18T14:54:12;16.20;;;3.28;;
27375;SDS011;14844;51.302;6.354;2022-11-18T14:56:41;16.35;;;3.25;;
27375;SDS011;14844;51.302;6.354;2022-11-18T14:59:10;10.57;;;2.67;;
27375;SDS011;14844;51.302;6.354;2022-11-18T15:01:43;12.32;;;2.88;;
27375;SDS011;14844;51.302;6.354;2022-11-18T15:04:09;15.82;;;2.88;;
27375;SDS011;14844;51.302;6.354;2022-11-18T15:06:35;19.52;;;3.65;;
27375;SDS011;14844;51.302;6.354;2022-11-18T15:09:02;13.60;;;3.15;;
27375;SDS011;14844;51.302;6.354;2022-11-18T15:11:28;16.35;;;4.80;;
27375;SDS011;14844;51.302;6.354;2022-11-18T15:13:53;21.67;;;9.20;;
27375;SDS011;14844;51.302;6.354;2022-11-18T15:16:39;18.85;;;5.07;;
27375;SDS011;14844;51.302;6.354;2022-11-18T15:19:05;18.80;;;4.57;;
27375;SDS011;14844;51.302;6.354;2022-11-18T15:21:37;13.35;;;3.90;;
27375;SDS011;14844;51.302;6.354;2022-11-18T15:24:02;12.90;;;3.10;;
27375;SDS011;14844;51.302;6.354;2022-11-18T15:26:31;9.88;;;3.10;;
27375;SDS011;14844;51.302;6.354;2022-11-18T15:29:00;16.20;;;3.33;;
27375;SDS011;14844;51.302;6.354;2022-11-18T15:31:25;15.10;;;3.00;;
27375;SDS011;14844;51.302;6.354;2022-11-18T15:33:51;16.75;;;3.55;;
27375;SDS011;14844;51.302;6.354;2022-11-18T15:36:18;8.50;;;2.83;;
27375;SDS011;14844;51.302;6.354;2022-11-18T15:38:45;13.90;;;3.88;;
27375;SDS011;14844;51.302;6.354;2022-11-18T15:41:16;19.45;;;3.60;;
27375;SDS011;14844;51.302;6.354;2022-11-18T15:43:50;12.30;;;4.13;;
27375;SDS011;14844;51.302;6.354;2022-11-18T15:46:17;10.30;;;4.55;;
27375;SDS011;14844;51.302;6.354;2022-11-18T15:48:44;12.40;;;3.78;;
27375;SDS011;14844;51.302;6.354;2022-11-18T15:51:10;12.45;;;3.80;;
27375;SDS011;14844;51.302;6.354;2022-11-18T15:53:35;16.48;;;3.50;;
27375;SDS011;14844;51.302;6.354;2022-11-18T15:56:14;15.15;;;3.53;;
27375;SDS011;14844;51.302;6.354;2022-11-18T15:58:52;10.80;;;4.13;;
27375;SDS011;14844;51.302;6.354;2022-11-18T16:01:24;17.00;;;5.13;;
27375;SDS011;14844;51.302;6.354;2022-11-18T16:06:23;7.53;;;2.95;;
27375;SDS011;14844;51.302;6.354;2022-11-18T16:08:49;8.23;;;2.88;;
27375;SDS011;14844;51.302;6.354;2022-11-18T16:11:16;6.95;;;2.85;;
27375;SDS011;14844;51.302;6.354;2022-11-18T16:14:05;9.27;;;3.20;;
27375;SDS011;14844;51.302;6.354;2022-11-18T16:16:32;12.65;;;3.90;;
27375;SDS011;14844;51.302;6.354;2022-11-18T16:19:03;14.60;;;3.67;;
27375;SDS011;14844;51.302;6.354;2022-11-18T16:21:35;14.60;;;3.92;;
27375;SDS011;14844;51.302;6.354;2022-11-18T16:24:03;10.13;;;4.38;;
27375;SDS011;14844;51.302;6.354;2022-11-18T16:26:32;10.02;;;4.03;;
27375;SDS011;14844;51.302;6.354;2022-11-18T16:28:59;12.20;;;4.45;;
27375;SDS011;14844;51.302;6.354;2022-11-18T16:31:28;12.88;;;3.95;;
27375;SDS011;14844;51.302;6.354;2022-11-18T16:34:08;15.85;;;4.38;;
27375;SDS011;14844;51.302;6.354;2022-11-18T16:36:34;12.52;;;3.95;;
27375;SDS011;14844;51.302;6.354;2022-11-18T16:39:08;20.25;;;4.35;;
27375;SDS011;14844;51.302;6.354;2022-11-18T16:41:34;11.50;;;3.85;;
27375;SDS011;14844;51.302;6.354;2022-11-18T16:44:00;13.95;;;4.47;;
27375;SDS011;14844;51.302;6.354;2022-11-18T16:46:28;17.58;;;4.63;;
27375;SDS011;14844;51.302;6.354;2022-11-18T16:48:55;15.40;;;4.65;;
27375;SDS011;14844;51.302;6.354;2022-11-18T16:51:23;16.75;;;5.25;;
27375;SDS011;14844;51.302;6.354;2022-11-18T16:53:54;11.07;;;3.72;;
27375;SDS011;14844;51.302;6.354;2022-11-18T16:56:23;7.65;;;2.72;;
27375;SDS011;14844;51.302;6.354;2022-11-18T16:58:54;8.30;;;2.90;;
27375;SDS011;14844;51.302;6.354;2022-11-18T17:01:21;6.33;;;3.57;;
27375;SDS011;14844;51.302;6.354;2022-11-18T17:03:49;8.27;;;3.28;;
27375;SDS011;14844;51.302;6.354;2022-11-18T17:06:16;7.93;;;3.58;;